Frank, North Carolina
Current Conditions -  °F | °C
As of 9:35 AM on Friday 19 Dec 2014 (Local Time) from KTNB Reporting Station
Overcast Overcast  
Wind Chill: 26°   Ceiling: 3200
Heat Index: 34°   Visibility: 10mi
Dew Point: 18°   Wind: 10mph
Humidity: 52%   Direction: 310°NW
Pressure: 30.12"   Gusts: NA
Location:  36.0227°N, 81.9499°W
Report Text: KTNB 191435Z AUTO 31009KT 10SM OVC032 01/M08 A3012 RMK AO2 T00101080
Loading
Personal Weather Stations






























Interactive Weather Map New forecast layout! Learn more

10-Day Weather Forecast

Advertisements
Track Severe Weather on mobile